Hovedside
METAR-TAF:

METAR-TAF

Lufthavner :

Værøy, Norge

Værøy helikopterhavn

breddegrad: 67-39-16N, lengdegrad: 12-43-37E, høyde over havet: 5 m

Gjeldene værobservasjon

Denne rapporten ble laget for 8 timer og 6 minutter siden, klokken 13:50 UTC
Vind 8 kt fra Øst-nordøst
Temperatur 14°C
Luftfuktighet 82%
Trykk 1008 hPa
Sikt 10 km eller mer
Få skyer i en høyde av 3000 ft
Brutte skyer i en høyde av 11000 ft
lette regnbyger

METAR: ENVR 181350Z 07008KT 9999 -SHRA FEW030 BKN110 14/11 Q1008

Tid: 23:56 (21:56 UTC)


TAF: fraværende

Værobservasjoner og værvarsel for over 4000 flyplasser (METAR- og TAF-rapporter).

Tilgjengelige stasjoner er representert av de røde og gule prikkene på kartet.

Hold musepekeren over prikken for å se navnet på stasjonen.

Klikk så for å se værobservasjoner og -varsler.

For å forandre kartet kan du klikke på den grønne knappen med svart kryss for å zoome inn, på den grønne knappen med strek for å zoome ut, eller på de grønne pilene for å se tilstøtende kart.


METAR-TAF: